National Weather Service Raw Text Product

Displaying AFOS PIL: TAFJXN Received: 2018-09-23 11:36 UTC


113 
FTUS43 KGRR 231136
TAFJXN
TAF
KJXN 231136Z 2312/2412 09005KT P6SM SKC=